RYR27K EGPH-EGSS
Flight info
| Callsign | RYR27K |
|---|---|
| Flight time | N/A |
| Altitude | 33000 |
| Route | GOSAM P600 FENIK L612 NAVSO DCT AKOMU DCT VAMEB UL612 LISTO |
| Aircraft | B738/M-SDE2E3FGHIRWXY/LB1 |
Departure
| Time | 2026-04-21 22:09 |
|---|---|
| Airport | Edinburgh Airport (EGPH) |
Arrival
| Time | N/A |
|---|---|
| Airport | London Stansted Airport (EGSS) |
| Time | Latitude | Longitude | Altitude | Speed | Heading |
|---|---|---|---|---|---|
| 2026-04-21 21:36 | 55.94792 | -3.35602 | 113 ft | 0 kts | 208° |
| 2026-04-21 21:57 | 55.94797 | -3.35596 | 111 ft | 5 kts | 208° |
| 2026-04-21 21:57 | 55.94821 | -3.35573 | 112 ft | 0 kts | 208° |
| 2026-04-21 21:57 | 55.94832 | -3.35560 | 111 ft | 5 kts | 246° |
| 2026-04-21 21:57 | 55.94835 | -3.35542 | 111 ft | 0 kts | 298° |
| 2026-04-21 22:01 | 55.94837 | -3.35546 | 115 ft | 2 kts | 298° |
| 2026-04-21 22:02 | 55.94852 | -3.35595 | 115 ft | 8 kts | 298° |
| 2026-04-21 22:02 | 55.94888 | -3.35716 | 112 ft | 13 kts | 298° |
| 2026-04-21 22:02 | 55.94955 | -3.35861 | 115 ft | 15 kts | 351° |
| 2026-04-21 22:02 | 55.95039 | -3.35842 | 115 ft | 10 kts | 331° |
| 2026-04-21 22:03 | 55.95079 | -3.35944 | 112 ft | 10 kts | 297° |
| 2026-04-21 22:03 | 55.95104 | -3.36057 | 114 ft | 10 kts | 288° |
| 2026-04-21 22:03 | 55.95113 | -3.36102 | 115 ft | 0 kts | 289° |
| 2026-04-21 22:04 | 55.95116 | -3.36122 | 112 ft | 7 kts | 289° |
| 2026-04-21 22:04 | 55.95134 | -3.36268 | 115 ft | 15 kts | 259° |
| 2026-04-21 22:04 | 55.95085 | -3.36426 | 114 ft | 14 kts | 238° |
| 2026-04-21 22:05 | 55.95034 | -3.36575 | 114 ft | 14 kts | 238° |
| 2026-04-21 22:05 | 55.94984 | -3.36717 | 113 ft | 13 kts | 238° |
| 2026-04-21 22:05 | 55.94938 | -3.36862 | 112 ft | 16 kts | 239° |
| 2026-04-21 22:05 | 55.94865 | -3.37078 | 115 ft | 25 kts | 239° |
| 2026-04-21 22:06 | 55.94761 | -3.37384 | 113 ft | 28 kts | 238° |
| 2026-04-21 22:06 | 55.94677 | -3.37631 | 114 ft | 22 kts | 239° |
| 2026-04-21 22:06 | 55.94601 | -3.37856 | 112 ft | 21 kts | 239° |
| 2026-04-21 22:06 | 55.94527 | -3.38075 | 112 ft | 20 kts | 239° |
| 2026-04-21 22:07 | 55.94455 | -3.38287 | 113 ft | 20 kts | 239° |
| 2026-04-21 22:07 | 55.94386 | -3.38492 | 114 ft | 19 kts | 239° |
| 2026-04-21 22:07 | 55.94318 | -3.38690 | 113 ft | 18 kts | 239° |
| 2026-04-21 22:07 | 55.94287 | -3.38851 | 115 ft | 13 kts | 292° |
| 2026-04-21 22:08 | 55.94356 | -3.38939 | 112 ft | 12 kts | 330° |
| 2026-04-21 22:08 | 55.94430 | -3.38925 | 113 ft | 12 kts | 53° |
| 2026-04-21 22:08 | 55.94480 | -3.38778 | 112 ft | 18 kts | 59° |
| 2026-04-21 22:08 | 55.94604 | -3.38414 | 111 ft | 62 kts | 59° |
| 2026-04-21 22:09 | 55.94926 | -3.37459 | 111 ft | 116 kts | 59° |
| 2026-04-21 22:09 | 55.95399 | -3.36018 | 204 ft | 149 kts | 60° |
| 2026-04-21 22:09 | 55.95870 | -3.34405 | 801 ft | 148 kts | 63° |
| 2026-04-21 22:09 | 55.96413 | -3.32650 | 1096 ft | 173 kts | 59° |
| 2026-04-21 22:10 | 55.97171 | -3.30958 | 1705 ft | 172 kts | 37° |
| 2026-04-21 22:10 | 55.98181 | -3.29779 | 2208 ft | 182 kts | 39° |
| 2026-04-21 22:10 | 55.99211 | -3.28352 | 2361 ft | 199 kts | 40° |
| 2026-04-21 22:10 | 56.00548 | -3.27350 | 2515 ft | 226 kts | 6° |
| 2026-04-21 22:11 | 56.02123 | -3.28202 | 2796 ft | 254 kts | 327° |
| 2026-04-21 22:11 | 56.03263 | -3.30701 | 3265 ft | 270 kts | 294° |
| 2026-04-21 22:11 | 56.03457 | -3.34053 | 3849 ft | 277 kts | 257° |
| 2026-04-21 22:11 | 56.02874 | -3.37324 | 4461 ft | 279 kts | 249° |
| 2026-04-21 22:12 | 56.02243 | -3.40647 | 5055 ft | 283 kts | 252° |
| 2026-04-21 22:12 | 56.01706 | -3.44073 | 5618 ft | 288 kts | 254° |
| 2026-04-21 22:12 | 56.01211 | -3.47563 | 6020 ft | 291 kts | 255° |
| 2026-04-21 22:12 | 56.00721 | -3.51078 | 5992 ft | 290 kts | 255° |
| 2026-04-21 22:13 | 56.00229 | -3.54569 | 5990 ft | 289 kts | 255° |
| 2026-04-21 22:13 | 55.99735 | -3.58047 | 5996 ft | 289 kts | 254° |
| 2026-04-21 22:13 | 55.99239 | -3.61527 | 5998 ft | 289 kts | 254° |
| 2026-04-21 22:13 | 55.98741 | -3.65002 | 5997 ft | 289 kts | 254° |
| 2026-04-21 22:14 | 55.98243 | -3.68472 | 6012 ft | 288 kts | 254° |
| 2026-04-21 22:14 | 55.97745 | -3.71934 | 5994 ft | 289 kts | 254° |
| 2026-04-21 22:14 | 55.97246 | -3.75405 | 5997 ft | 289 kts | 254° |
| 2026-04-21 22:14 | 55.96745 | -3.78873 | 6000 ft | 288 kts | 254° |
| 2026-04-21 22:15 | 55.96245 | -3.82338 | 6002 ft | 288 kts | 254° |
| 2026-04-21 22:15 | 55.95747 | -3.85789 | 6010 ft | 287 kts | 254° |
| 2026-04-21 22:15 | 55.95245 | -3.89245 | 6005 ft | 288 kts | 254° |
| 2026-04-21 22:15 | 55.94742 | -3.92696 | 6004 ft | 288 kts | 254° |
| 2026-04-21 22:16 | 55.94235 | -3.96156 | 6013 ft | 288 kts | 253° |
| 2026-04-21 22:16 | 55.93845 | -3.98414 | 5994 ft | 288 kts | 248° |
| 2026-04-21 22:16 | 55.92670 | -4.02644 | 5971 ft | 285 kts | 228° |
| 2026-04-21 22:16 | 55.91775 | -4.04325 | 6013 ft | 279 kts | 217° |
| 2026-04-21 22:17 | 55.90241 | -4.06430 | 5985 ft | 280 kts | 211° |
| 2026-04-21 22:17 | 55.88633 | -4.08365 | 6009 ft | 279 kts | 210° |
| 2026-04-21 22:17 | 55.87010 | -4.10297 | 5995 ft | 281 kts | 210° |
| 2026-04-21 22:17 | 55.85390 | -4.12241 | 6004 ft | 281 kts | 210° |
| 2026-04-21 22:18 | 55.83773 | -4.14195 | 5998 ft | 282 kts | 210° |
| 2026-04-21 22:18 | 55.82151 | -4.16159 | 5991 ft | 282 kts | 210° |
| 2026-04-21 22:18 | 55.80531 | -4.18120 | 6000 ft | 281 kts | 210° |
| 2026-04-21 22:18 | 55.78915 | -4.20076 | 5993 ft | 281 kts | 210° |
| 2026-04-21 22:19 | 55.77293 | -4.22061 | 6168 ft | 287 kts | 211° |
| 2026-04-21 22:19 | 55.75659 | -4.24075 | 6949 ft | 282 kts | 211° |
| 2026-04-21 22:19 | 55.74045 | -4.26064 | 7600 ft | 284 kts | 211° |
| 2026-04-21 22:19 | 55.72332 | -4.27807 | 8141 ft | 284 kts | 194° |
| 2026-04-21 22:20 | 55.70421 | -4.27992 | 8761 ft | 273 kts | 159° |
| 2026-04-21 22:20 | 55.68738 | -4.26642 | 9566 ft | 264 kts | 147° |
| 2026-04-21 22:20 | 55.67109 | -4.25018 | 10103 ft | 272 kts | 146° |
| 2026-04-21 22:20 | 55.65461 | -4.23342 | 10712 ft | 275 kts | 147° |
| 2026-04-21 22:21 | 55.63751 | -4.21629 | 10943 ft | 294 kts | 147° |
| 2026-04-21 22:21 | 55.61910 | -4.19802 | 11117 ft | 313 kts | 148° |
| 2026-04-21 22:21 | 55.59943 | -4.17866 | 11255 ft | 332 kts | 148° |
| 2026-04-21 22:21 | 55.57875 | -4.15842 | 11508 ft | 346 kts | 148° |
| 2026-04-21 22:22 | 55.55757 | -4.13781 | 12055 ft | 350 kts | 148° |
| 2026-04-21 22:22 | 55.53621 | -4.11706 | 12734 ft | 350 kts | 148° |
| 2026-04-21 22:22 | 55.51479 | -4.09624 | 13390 ft | 353 kts | 148° |
| 2026-04-21 22:22 | 55.49347 | -4.07551 | 13945 ft | 358 kts | 149° |
| 2026-04-21 22:23 | 55.47149 | -4.05413 | 14549 ft | 361 kts | 149° |
| 2026-04-21 22:23 | 55.44950 | -4.03276 | 15218 ft | 362 kts | 149° |
| 2026-04-21 22:23 | 55.42719 | -4.01107 | 15636 ft | 371 kts | 149° |
| 2026-04-21 22:23 | 55.40447 | -3.98902 | 16217 ft | 374 kts | 149° |
| 2026-04-21 22:24 | 55.38166 | -3.96693 | 16910 ft | 374 kts | 149° |
| 2026-04-21 22:24 | 55.35877 | -3.94480 | 17506 ft | 377 kts | 149° |
| 2026-04-21 22:24 | 55.33562 | -3.92243 | 18014 ft | 383 kts | 150° |
| 2026-04-21 22:24 | 55.31208 | -3.89972 | 18475 ft | 389 kts | 150° |
| 2026-04-21 22:25 | 55.28837 | -3.87686 | 19060 ft | 390 kts | 150° |
| 2026-04-21 22:25 | 55.26442 | -3.85381 | 19561 ft | 392 kts | 150° |
| 2026-04-21 22:25 | 55.24055 | -3.83086 | 20179 ft | 392 kts | 150° |
| 2026-04-21 22:25 | 55.21657 | -3.80793 | 20681 ft | 395 kts | 151° |
| 2026-04-21 22:26 | 55.19190 | -3.78576 | 20985 ft | 402 kts | 153° |
| 2026-04-21 22:26 | 55.16663 | -3.76409 | 21399 ft | 406 kts | 153° |
| 2026-04-21 22:26 | 55.14107 | -3.74249 | 21818 ft | 410 kts | 154° |
| 2026-04-21 22:26 | 55.11534 | -3.72078 | 22307 ft | 412 kts | 153° |
| 2026-04-21 22:27 | 55.08950 | -3.69890 | 22821 ft | 413 kts | 153° |
| 2026-04-21 22:27 | 55.06362 | -3.67691 | 23297 ft | 415 kts | 153° |
| 2026-04-21 22:27 | 55.03760 | -3.65473 | 23724 ft | 418 kts | 153° |
| 2026-04-21 22:27 | 55.01132 | -3.63231 | 24024 ft | 423 kts | 153° |
| 2026-04-21 22:28 | 54.98478 | -3.60965 | 24401 ft | 425 kts | 153° |
| 2026-04-21 22:28 | 54.95822 | -3.58703 | 24816 ft | 426 kts | 153° |
| 2026-04-21 22:28 | 54.93137 | -3.56416 | 24866 ft | 436 kts | 154° |
| 2026-04-21 22:28 | 54.90383 | -3.54075 | 24996 ft | 444 kts | 154° |
| 2026-04-21 22:29 | 54.87595 | -3.51709 | 25301 ft | 446 kts | 154° |
| 2026-04-21 22:29 | 54.84810 | -3.49351 | 25688 ft | 447 kts | 155° |
| 2026-04-21 22:29 | 54.81983 | -3.46961 | 25749 ft | 457 kts | 155° |
| 2026-04-21 22:29 | 54.79128 | -3.44552 | 26223 ft | 454 kts | 155° |
| 2026-04-21 22:30 | 54.76270 | -3.42144 | 26433 ft | 459 kts | 155° |
| 2026-04-21 22:30 | 54.73388 | -3.39720 | 26671 ft | 463 kts | 155° |
| 2026-04-21 22:30 | 54.70481 | -3.37277 | 26935 ft | 466 kts | 155° |
| 2026-04-21 22:30 | 54.67586 | -3.34849 | 27041 ft | 473 kts | 156° |
| 2026-04-21 22:31 | 54.64604 | -3.32353 | 27185 ft | 478 kts | 156° |
| 2026-04-21 22:31 | 54.61608 | -3.29847 | 27524 ft | 479 kts | 156° |
| 2026-04-21 22:31 | 54.58596 | -3.27332 | 27796 ft | 482 kts | 156° |
| 2026-04-21 22:31 | 54.55572 | -3.24813 | 27993 ft | 486 kts | 156° |
| 2026-04-21 22:32 | 54.52521 | -3.22275 | 28210 ft | 489 kts | 156° |
| 2026-04-21 22:32 | 54.49450 | -3.19725 | 28494 ft | 490 kts | 156° |
| 2026-04-21 22:32 | 54.46382 | -3.17180 | 28844 ft | 490 kts | 156° |
| 2026-04-21 22:33 | 54.40170 | -3.12042 | 28963 ft | 501 kts | 157° |
| 2026-04-21 22:33 | 54.37015 | -3.09438 | 29151 ft | 504 kts | 157° |
| 2026-04-21 22:33 | 54.33856 | -3.06835 | 29472 ft | 504 kts | 157° |
| 2026-04-21 22:33 | 54.30696 | -3.04235 | 29819 ft | 504 kts | 157° |
| 2026-04-21 22:34 | 54.27527 | -3.01633 | 30059 ft | 506 kts | 157° |
| 2026-04-21 22:34 | 54.24343 | -2.99025 | 30263 ft | 509 kts | 158° |
| 2026-04-21 22:34 | 54.21151 | -2.96411 | 30530 ft | 510 kts | 158° |
| 2026-04-21 22:34 | 54.17952 | -2.93797 | 30792 ft | 509 kts | 158° |
| 2026-04-21 22:35 | 54.14752 | -2.91251 | 31124 ft | 506 kts | 159° |
| 2026-04-21 22:35 | 54.11521 | -2.88895 | 31553 ft | 501 kts | 161° |
| 2026-04-21 22:35 | 54.08312 | -2.86641 | 31997 ft | 497 kts | 161° |
| 2026-04-21 22:35 | 54.05129 | -2.84397 | 32386 ft | 494 kts | 160° |
| 2026-04-21 22:36 | 53.98814 | -2.79842 | 32967 ft | 492 kts | 160° |
| 2026-04-21 22:36 | 53.95668 | -2.77571 | 33267 ft | 490 kts | 160° |
| 2026-04-21 22:36 | 53.92527 | -2.75318 | 33503 ft | 491 kts | 160° |
| 2026-04-21 22:37 | 53.89365 | -2.73055 | 33373 ft | 494 kts | 160° |
| 2026-04-21 22:37 | 53.86217 | -2.70781 | 33452 ft | 491 kts | 160° |
| 2026-04-21 22:37 | 53.79960 | -2.66245 | 33425 ft | 486 kts | 160° |
| 2026-04-21 22:38 | 53.73745 | -2.61778 | 33417 ft | 485 kts | 160° |
| 2026-04-21 22:38 | 53.67526 | -2.57341 | 33399 ft | 485 kts | 160° |
| 2026-04-21 22:39 | 53.61302 | -2.52907 | 33406 ft | 486 kts | 160° |
| 2026-04-21 22:39 | 53.55062 | -2.48461 | 33411 ft | 487 kts | 160° |
| 2026-04-21 22:40 | 53.48807 | -2.44012 | 33413 ft | 489 kts | 160° |
| 2026-04-21 22:40 | 53.42533 | -2.39574 | 33395 ft | 490 kts | 160° |
| 2026-04-21 22:41 | 53.36247 | -2.35151 | 33405 ft | 490 kts | 160° |
| 2026-04-21 22:41 | 53.29945 | -2.30725 | 33406 ft | 491 kts | 160° |
| 2026-04-21 22:42 | 53.23640 | -2.26316 | 33398 ft | 492 kts | 160° |
| 2026-04-21 22:42 | 53.17312 | -2.21966 | 33404 ft | 491 kts | 161° |
| 2026-04-21 22:43 | 53.11104 | -2.17153 | 33364 ft | 495 kts | 152° |
| 2026-04-21 22:43 | 53.05482 | -2.10526 | 33370 ft | 498 kts | 141° |
| 2026-04-21 22:44 | 53.00226 | -2.03066 | 33364 ft | 498 kts | 142° |
| 2026-04-21 22:44 | 52.94825 | -1.96048 | 33400 ft | 496 kts | 145° |
| 2026-04-21 22:45 | 52.89230 | -1.89365 | 33408 ft | 495 kts | 146° |
| 2026-04-21 22:45 | 52.83628 | -1.82713 | 33394 ft | 496 kts | 146° |
| 2026-04-21 22:46 | 52.80865 | -1.79396 | 33371 ft | 483 kts | 146° |
| 2026-04-21 22:46 | 52.78187 | -1.76173 | 33363 ft | 469 kts | 146° |
| 2026-04-21 22:46 | 52.75588 | -1.73055 | 33376 ft | 454 kts | 146° |
| 2026-04-21 22:46 | 52.73029 | -1.70152 | 33254 ft | 440 kts | 151° |
| 2026-04-21 22:47 | 52.70428 | -1.67681 | 33286 ft | 424 kts | 156° |
| 2026-04-21 22:47 | 52.67837 | -1.65549 | 33222 ft | 406 kts | 158° |
| 2026-04-21 22:47 | 52.65349 | -1.63585 | 33213 ft | 388 kts | 158° |
| 2026-04-21 22:47 | 52.62953 | -1.61679 | 33169 ft | 379 kts | 158° |
| 2026-04-21 22:48 | 52.60586 | -1.59755 | 32577 ft | 381 kts | 157° |
| 2026-04-21 22:48 | 52.58198 | -1.57774 | 31719 ft | 390 kts | 156° |
| 2026-04-21 22:48 | 52.55756 | -1.55717 | 30934 ft | 397 kts | 156° |
| 2026-04-21 22:48 | 52.53302 | -1.53629 | 30367 ft | 397 kts | 155° |
| 2026-04-21 22:49 | 52.50866 | -1.51546 | 29902 ft | 392 kts | 155° |
| 2026-04-21 22:49 | 52.48465 | -1.49492 | 29573 ft | 385 kts | 155° |
| 2026-04-21 22:49 | 52.46103 | -1.47475 | 29057 ft | 383 kts | 155° |
| 2026-04-21 22:49 | 52.43729 | -1.45457 | 28365 ft | 385 kts | 155° |
| 2026-04-21 22:50 | 52.41357 | -1.43442 | 27865 ft | 382 kts | 155° |
| 2026-04-21 22:50 | 52.39015 | -1.41453 | 27479 ft | 375 kts | 155° |
| 2026-04-21 22:50 | 52.36712 | -1.39501 | 27033 ft | 371 kts | 155° |
| 2026-04-21 22:50 | 52.34424 | -1.37562 | 26544 ft | 369 kts | 155° |
| 2026-04-21 22:51 | 52.32147 | -1.35639 | 26061 ft | 367 kts | 155° |
| 2026-04-21 22:51 | 52.29888 | -1.33731 | 25622 ft | 364 kts | 154° |
| 2026-04-21 22:51 | 52.27668 | -1.31787 | 25204 ft | 360 kts | 152° |
| 2026-04-21 22:51 | 52.25498 | -1.29748 | 24696 ft | 361 kts | 151° |
| 2026-04-21 22:52 | 52.23321 | -1.27655 | 24114 ft | 364 kts | 150° |
| 2026-04-21 22:52 | 52.21143 | -1.25561 | 23661 ft | 361 kts | 150° |
| 2026-04-21 22:52 | 52.19030 | -1.23544 | 23348 ft | 353 kts | 150° |
| 2026-04-21 22:52 | 52.16932 | -1.21555 | 23000 ft | 346 kts | 150° |
| 2026-04-21 22:53 | 52.14986 | -1.19720 | 22585 ft | 342 kts | 150° |